createdAt,value
2023-03-10T00:02:23.256Z,99.90
2023-03-10T00:04:51.523Z,99.90
2023-03-10T00:07:19.044Z,99.90
2023-03-10T00:09:46.906Z,99.90
2023-03-10T00:12:13.952Z,99.90
2023-03-10T00:14:40.927Z,99.90
2023-03-10T00:17:07.967Z,99.90
2023-03-10T00:19:34.889Z,99.90
2023-03-10T00:22:03.845Z,99.90
2023-03-10T00:24:31.020Z,99.90
2023-03-10T00:26:58.014Z,99.90
2023-03-10T00:29:25.242Z,99.90
2023-03-10T00:31:52.160Z,99.90
2023-03-10T00:34:19.018Z,99.90
2023-03-10T00:36:45.946Z,99.90
2023-03-10T00:39:12.894Z,99.90
2023-03-10T00:41:39.811Z,99.90
2023-03-10T00:44:09.678Z,99.90
2023-03-10T00:46:38.938Z,99.90
2023-03-10T00:49:07.281Z,99.90
2023-03-10T00:51:41.499Z,99.90
2023-03-10T00:54:09.772Z,99.90
2023-03-10T00:56:36.742Z,99.90
2023-03-10T00:59:04.101Z,99.90
2023-03-10T01:01:38.392Z,99.90
2023-03-10T01:04:13.415Z,99.90
2023-03-10T01:06:40.760Z,99.90
2023-03-10T01:09:08.018Z,99.90
2023-03-10T01:11:35.294Z,99.90
2023-03-10T01:14:04.256Z,99.90
2023-03-10T01:16:31.669Z,99.90
2023-03-10T01:18:59.060Z,99.90
2023-03-10T01:21:32.374Z,99.90
2023-03-10T01:24:00.345Z,99.90
2023-03-10T01:26:27.881Z,99.90
2023-03-10T01:28:54.817Z,99.90
2023-03-10T01:31:23.375Z,99.90
2023-03-10T01:33:50.553Z,99.90
2023-03-10T01:36:20.842Z,99.90
2023-03-10T01:38:49.203Z,99.90
2023-03-10T01:41:17.734Z,99.90
2023-03-10T01:43:47.022Z,99.90
2023-03-10T01:46:35.124Z,99.90
2023-03-10T01:49:12.219Z,99.90
2023-03-10T01:51:41.712Z,99.90
2023-03-10T01:54:13.889Z,99.90
2023-03-10T01:56:41.559Z,99.90
2023-03-10T01:59:09.145Z,99.90
2023-03-10T02:01:36.723Z,99.90
2023-03-10T02:04:18.329Z,99.90
2023-03-10T02:06:47.698Z,99.90
2023-03-10T02:09:16.462Z,99.90
2023-03-10T02:11:44.521Z,99.90
2023-03-10T02:14:11.589Z,99.90
2023-03-10T02:16:41.053Z,99.90
2023-03-10T02:19:20.287Z,99.90
2023-03-10T02:22:03.170Z,99.90
2023-03-10T02:24:34.993Z,99.90
2023-03-10T02:27:17.055Z,99.90
2023-03-10T02:29:58.800Z,99.90
2023-03-10T02:32:27.497Z,99.90
2023-03-10T02:34:54.490Z,99.90
2023-03-10T02:37:34.197Z,99.90
2023-03-10T02:40:01.281Z,99.90
2023-03-10T02:42:33.158Z,99.90
2023-03-10T02:45:00.879Z,99.90
2023-03-10T02:47:27.752Z,99.90
2023-03-10T02:49:54.638Z,99.90
2023-03-10T02:52:43.043Z,99.90
2023-03-10T02:55:15.862Z,99.90
2023-03-10T02:57:42.746Z,99.90
2023-03-10T03:00:11.932Z,99.90
2023-03-10T03:02:38.986Z,99.90
2023-03-10T03:05:06.388Z,99.90
2023-03-10T03:07:33.424Z,99.90
2023-03-10T03:10:00.364Z,99.90
2023-03-10T03:12:27.756Z,99.90
2023-03-10T03:14:54.638Z,99.90
2023-03-10T03:17:21.535Z,99.90
2023-03-10T03:19:48.525Z,99.90
2023-03-10T03:22:15.447Z,99.90
2023-03-10T03:24:42.316Z,99.90
2023-03-10T03:27:09.234Z,99.90
2023-03-10T03:29:36.381Z,99.90
2023-03-10T03:32:03.436Z,99.90
2023-03-10T03:34:30.409Z,99.90
2023-03-10T03:36:57.392Z,99.90
2023-03-10T03:39:24.509Z,99.90
2023-03-10T03:41:53.500Z,99.90
2023-03-10T03:44:20.388Z,99.90
2023-03-10T03:46:47.246Z,99.90
2023-03-10T03:49:14.186Z,99.90
2023-03-10T03:51:41.270Z,99.90
2023-03-10T03:54:08.150Z,99.90
2023-03-10T03:56:35.105Z,99.90
2023-03-10T03:59:01.978Z,99.90
2023-03-10T04:01:28.865Z,99.90
2023-03-10T04:03:55.987Z,99.90
2023-03-10T04:06:23.326Z,99.90
2023-03-10T04:08:51.181Z,99.90
2023-03-10T04:11:18.130Z,99.90
2023-03-10T04:13:45.027Z,99.90
2023-03-10T04:16:12.246Z,99.90
2023-03-10T04:18:39.229Z,99.90
2023-03-10T04:21:06.161Z,99.90
2023-03-10T04:23:33.117Z,99.90
2023-03-10T04:26:00.045Z,99.90
2023-03-10T04:28:26.923Z,99.90
2023-03-10T04:30:53.854Z,99.90
2023-03-10T04:33:20.872Z,99.90
2023-03-10T04:35:51.637Z,99.90
2023-03-10T04:38:19.413Z,99.90
2023-03-10T04:40:46.417Z,99.90
2023-03-10T04:43:13.341Z,99.90
2023-03-10T04:45:40.248Z,99.90
2023-03-10T04:48:07.168Z,99.90
2023-03-10T04:50:34.083Z,99.90
2023-03-10T04:53:00.928Z,99.90
2023-03-10T04:55:27.948Z,99.90
2023-03-10T04:57:54.865Z,99.90
2023-03-10T05:00:21.840Z,99.90
2023-03-10T05:02:48.849Z,99.90
2023-03-10T05:05:15.812Z,99.90
2023-03-10T05:07:42.912Z,99.90
2023-03-10T05:10:11.123Z,99.90
2023-03-10T05:12:39.418Z,99.90
2023-03-10T05:15:07.012Z,99.90
2023-03-10T05:17:33.928Z,99.90
2023-03-10T05:20:00.859Z,99.90
2023-03-10T05:22:27.770Z,99.90
2023-03-10T05:24:54.707Z,99.90
2023-03-10T05:27:22.126Z,99.90
2023-03-10T05:29:49.120Z,99.90
2023-03-10T05:32:16.237Z,99.90
2023-03-10T05:34:43.199Z,99.90
2023-03-10T05:37:10.108Z,99.90
2023-03-10T05:39:37.061Z,99.90
2023-03-10T05:42:04.000Z,99.90
2023-03-10T05:44:30.992Z,99.90
2023-03-10T05:46:58.159Z,99.90
2023-03-10T05:49:25.121Z,99.90
2023-03-10T05:51:52.913Z,99.90
2023-03-10T05:54:19.967Z,99.90
2023-03-10T05:56:46.856Z,99.90
2023-03-10T05:59:13.785Z,99.90
2023-03-10T06:01:40.902Z,99.90
2023-03-10T06:04:07.862Z,99.90
2023-03-10T06:06:35.780Z,99.90
2023-03-10T06:09:03.466Z,99.90
2023-03-10T06:11:30.409Z,99.90
2023-03-10T06:13:57.570Z,99.90
2023-03-10T06:16:25.449Z,99.90
2023-03-10T06:18:56.876Z,99.90
2023-03-10T06:21:25.310Z,99.90
2023-03-10T06:23:52.659Z,99.90
2023-03-10T06:26:19.630Z,99.90
2023-03-10T06:28:47.256Z,99.90
2023-03-10T06:31:23.452Z,99.90
2023-03-10T06:33:51.113Z,99.90
2023-03-10T06:36:18.494Z,99.90
2023-03-10T06:38:45.630Z,99.90
2023-03-10T06:41:12.934Z,99.90
2023-03-10T06:43:40.575Z,99.90
2023-03-10T06:46:10.539Z,99.90
2023-03-10T06:48:39.270Z,99.90
2023-03-10T06:51:07.931Z,99.90
2023-03-10T06:53:34.982Z,99.90
2023-03-10T06:56:05.099Z,99.90
2023-03-10T06:58:33.557Z,99.90
2023-03-10T07:01:01.087Z,99.90
2023-03-10T07:03:31.273Z,99.90
2023-03-10T07:05:59.486Z,99.90
2023-03-10T07:08:30.225Z,99.90
2023-03-10T07:10:57.397Z,99.90
2023-03-10T07:13:24.413Z,99.90
2023-03-10T07:15:51.364Z,99.90
2023-03-10T07:18:18.349Z,99.90
2023-03-10T07:20:53.059Z,99.90
2023-03-10T07:23:20.651Z,99.90
2023-03-10T07:25:56.310Z,99.90
2023-03-10T07:28:24.759Z,99.90
2023-03-10T07:30:52.390Z,99.90
2023-03-10T07:33:19.382Z,99.90
2023-03-10T07:35:46.393Z,99.90
2023-03-10T07:38:13.396Z,99.90
2023-03-10T07:40:41.024Z,99.90
2023-03-10T07:43:15.252Z,99.90
2023-03-10T07:45:42.412Z,99.90
2023-03-10T07:48:09.325Z,96.30
2023-03-10T07:50:36.269Z,95.80
2023-03-10T07:53:03.284Z,93.10
2023-03-10T07:55:30.183Z,88.10
2023-03-10T07:58:00.498Z,79.30
2023-03-10T08:00:28.424Z,80.20
2023-03-10T08:02:55.346Z,73.70
2023-03-10T08:05:22.367Z,69.20
2023-03-10T08:07:49.252Z,65.70
2023-03-10T08:10:16.160Z,58.80
2023-03-10T08:12:43.154Z,60.40
2023-03-10T08:15:11.209Z,60.00
2023-03-10T08:17:38.138Z,55.10
2023-03-10T08:20:06.749Z,49.30
2023-03-10T08:22:34.111Z,52.10
2023-03-10T08:25:01.560Z,49.90
2023-03-10T08:27:29.211Z,49.00
2023-03-10T08:29:56.239Z,46.70
2023-03-10T08:32:23.251Z,48.50
2023-03-10T08:34:50.242Z,45.40
2023-03-10T08:37:17.319Z,43.10
2023-03-10T08:39:44.387Z,45.50
2023-03-10T08:42:12.443Z,36.70
2023-03-10T08:44:40.375Z,36.40
2023-03-10T08:47:07.665Z,38.60
2023-03-10T08:49:36.282Z,40.30
2023-03-10T08:52:04.000Z,34.40
2023-03-10T08:54:32.626Z,33.90
2023-03-10T08:57:00.210Z,34.80
2023-03-10T08:59:27.382Z,34.90
2023-03-10T09:01:54.445Z,33.30
2023-03-10T09:04:21.451Z,32.90
2023-03-10T09:06:48.342Z,33.60
2023-03-10T09:09:15.219Z,32.70
2023-03-10T09:11:42.943Z,31.40
2023-03-10T09:14:11.785Z,29.90
2023-03-10T09:16:40.469Z,29.70
2023-03-10T09:19:08.156Z,27.20
2023-03-10T09:21:35.292Z,26.00
2023-03-10T09:24:03.060Z,28.20
2023-03-10T09:26:30.807Z,27.80
2023-03-10T09:28:57.828Z,27.10
2023-03-10T09:31:34.141Z,27.30
2023-03-10T09:34:01.484Z,23.40
2023-03-10T09:36:29.812Z,22.00
2023-03-10T09:38:58.709Z,19.40
2023-03-10T09:41:55.864Z,19.60
2023-03-10T09:44:30.996Z,21.70
2023-03-10T09:47:10.094Z,19.90
2023-03-10T09:49:43.213Z,19.10
2023-03-10T09:52:19.656Z,20.20
2023-03-10T09:54:52.409Z,19.00
2023-03-10T09:57:22.625Z,17.10
2023-03-10T09:59:53.880Z,15.80
2023-03-10T10:02:24.157Z,15.10
2023-03-10T10:04:55.852Z,13.50
2023-03-10T10:07:27.053Z,16.60
2023-03-10T10:10:00.868Z,13.90
2023-03-10T10:12:27.812Z,15.60
2023-03-10T10:14:58.515Z,16.20
2023-03-10T10:18:05.476Z,17.40
2023-03-10T10:20:59.024Z,17.10
2023-03-10T10:23:29.006Z,17.90
2023-03-10T10:25:57.054Z,18.00
2023-03-10T10:28:42.254Z,17.10
2023-03-10T10:31:16.025Z,16.50
2023-03-10T10:34:02.108Z,16.40
2023-03-10T10:36:32.812Z,16.20
2023-03-10T10:39:00.287Z,17.00
2023-03-10T10:41:34.997Z,15.70
2023-03-10T10:44:16.381Z,15.50
2023-03-10T10:46:56.936Z,13.80
2023-03-10T10:49:29.089Z,13.70
2023-03-10T10:51:59.311Z,12.30
2023-03-10T10:54:31.200Z,12.10
2023-03-10T10:57:00.517Z,10.80
2023-03-10T10:59:33.094Z,11.30
2023-03-10T11:02:19.207Z,8.70
2023-03-10T11:04:47.281Z,8.40
2023-03-10T11:07:25.780Z,11.20
2023-03-10T11:09:52.836Z,12.50
2023-03-10T11:13:05.688Z,10.00
2023-03-10T11:15:58.248Z,11.60
2023-03-10T11:18:35.151Z,11.50
2023-03-10T11:21:21.904Z,13.40
2023-03-10T11:23:59.841Z,13.80
2023-03-10T11:26:55.395Z,13.30
2023-03-10T11:29:31.201Z,14.30
2023-03-10T11:32:08.453Z,12.00
2023-03-10T11:34:40.786Z,12.20
2023-03-10T11:37:22.678Z,13.20
2023-03-10T11:40:12.086Z,15.20
2023-03-10T11:43:04.592Z,17.30
2023-03-10T11:45:45.385Z,17.20
2023-03-10T11:48:44.091Z,14.10
2023-03-10T11:51:41.148Z,13.00
2023-03-10T11:54:19.970Z,14.00
2023-03-10T11:56:48.691Z,15.00
2023-03-10T11:59:24.750Z,14.70
2023-03-10T12:01:56.347Z,15.70
2023-03-10T12:04:25.636Z,17.20
2023-03-10T12:06:57.600Z,16.90
2023-03-10T12:09:43.371Z,19.40
2023-03-10T12:12:19.104Z,24.20
2023-03-10T12:14:47.432Z,25.30
2023-03-10T12:17:16.710Z,25.00
2023-03-10T12:20:09.552Z,24.30
2023-03-10T12:22:53.707Z,24.70
2023-03-10T12:25:30.100Z,25.90
2023-03-10T12:28:26.346Z,25.50
2023-03-10T12:30:58.518Z,25.50
2023-03-10T12:33:31.315Z,24.70
2023-03-10T12:36:17.095Z,23.20
2023-03-10T12:38:48.337Z,24.10
2023-03-10T12:41:45.708Z,25.10
2023-03-10T12:44:35.910Z,26.50
2023-03-10T12:47:08.592Z,24.70
2023-03-10T12:49:41.570Z,24.00
2023-03-10T12:52:35.817Z,24.60
2023-03-10T12:55:24.566Z,28.00
2023-03-10T12:57:56.983Z,25.50
2023-03-10T13:00:40.291Z,26.10
2023-03-10T13:03:10.201Z,26.00
2023-03-10T13:06:21.109Z,25.70
2023-03-10T13:08:54.128Z,26.00
2023-03-10T13:11:41.117Z,27.70
2023-03-10T13:14:21.854Z,27.60
2023-03-10T13:16:56.716Z,27.60
2023-03-10T13:19:26.082Z,25.90
2023-03-10T13:21:53.101Z,27.70
2023-03-10T13:24:25.446Z,26.00
2023-03-10T13:27:19.556Z,25.70
2023-03-10T13:29:59.844Z,23.50
2023-03-10T13:32:27.383Z,24.60
2023-03-10T13:34:54.734Z,23.70
2023-03-10T13:37:21.924Z,25.70
2023-03-10T13:39:48.820Z,24.80
2023-03-10T13:42:37.119Z,24.00
2023-03-10T13:45:21.736Z,25.00
2023-03-10T13:47:49.503Z,24.40
2023-03-10T13:50:17.312Z,24.60
2023-03-10T13:53:04.641Z,25.20
2023-03-10T13:55:40.528Z,25.80
2023-03-10T13:58:10.974Z,25.30
2023-03-10T14:00:37.957Z,25.20
2023-03-10T14:03:08.483Z,28.00
2023-03-10T14:05:45.891Z,29.30
2023-03-10T14:08:24.355Z,28.90
2023-03-10T14:10:51.730Z,29.20
2023-03-10T14:13:40.570Z,28.50
2023-03-10T14:16:08.072Z,27.30
2023-03-10T14:18:39.756Z,28.90
2023-03-10T14:21:34.629Z,34.20
2023-03-10T14:24:07.485Z,34.70
2023-03-10T14:26:34.589Z,31.00
2023-03-10T14:29:03.676Z,28.80
2023-03-10T14:31:30.543Z,32.00
2023-03-10T14:33:57.473Z,32.60
2023-03-10T14:36:25.120Z,32.90
2023-03-10T14:38:52.062Z,31.20
2023-03-10T14:41:23.684Z,30.10
2023-03-10T14:43:51.041Z,31.20
2023-03-10T14:46:19.385Z,34.10
2023-03-10T14:48:46.740Z,30.70
2023-03-10T14:51:32.429Z,30.90
2023-03-10T14:54:01.695Z,32.40
2023-03-10T14:56:28.792Z,34.50
2023-03-10T14:58:56.769Z,36.10
2023-03-10T15:01:24.241Z,36.90
2023-03-10T15:03:51.481Z,32.00
2023-03-10T15:06:19.894Z,31.50
2023-03-10T15:08:46.938Z,30.50
2023-03-10T15:11:15.931Z,30.70
2023-03-10T15:13:44.337Z,31.70
2023-03-10T15:16:16.981Z,30.90
2023-03-10T15:18:44.525Z,31.20
2023-03-10T15:21:11.665Z,32.20
2023-03-10T15:23:38.614Z,31.00
2023-03-10T15:26:09.689Z,31.80
2023-03-10T15:28:37.476Z,28.70
2023-03-10T15:31:05.373Z,28.70
2023-03-10T15:33:32.879Z,29.50
2023-03-10T15:35:59.791Z,28.00
2023-03-10T15:38:26.765Z,26.30
2023-03-10T15:40:53.640Z,26.30
2023-03-10T15:43:20.608Z,26.70
2023-03-10T15:45:49.334Z,26.90
2023-03-10T15:48:16.522Z,27.10
2023-03-10T15:50:47.029Z,27.80
2023-03-10T15:53:14.450Z,28.60
2023-03-10T15:55:42.181Z,28.60
2023-03-10T15:58:10.999Z,28.00
2023-03-10T16:00:38.117Z,31.90
2023-03-10T16:03:05.017Z,29.50
2023-03-10T16:05:31.856Z,30.20
2023-03-10T16:07:58.809Z,31.90
2023-03-10T16:10:25.697Z,31.70
2023-03-10T16:12:52.778Z,33.90
2023-03-10T16:15:19.813Z,31.20
2023-03-10T16:17:46.784Z,30.20
2023-03-10T16:20:14.072Z,29.30
2023-03-10T16:22:43.205Z,28.60
2023-03-10T16:25:15.496Z,29.00
2023-03-10T16:27:43.888Z,29.30
2023-03-10T16:30:12.514Z,29.80
2023-03-10T16:32:39.490Z,33.00
2023-03-10T16:35:07.192Z,34.40
2023-03-10T16:37:34.069Z,33.60
2023-03-10T16:40:01.083Z,32.00
2023-03-10T16:42:28.000Z,34.20
2023-03-10T16:44:57.954Z,36.40
2023-03-10T16:47:24.939Z,35.50
2023-03-10T16:49:51.955Z,35.10
2023-03-10T16:52:18.861Z,37.30
2023-03-10T16:54:48.683Z,37.00
2023-03-10T16:57:15.990Z,38.10
2023-03-10T16:59:44.752Z,42.00
2023-03-10T17:02:16.303Z,46.30
2023-03-10T17:04:43.485Z,48.30
2023-03-10T17:07:10.434Z,50.30
2023-03-10T17:09:38.162Z,53.30
2023-03-10T17:12:05.478Z,55.60
2023-03-10T17:14:32.448Z,57.60
2023-03-10T17:17:02.427Z,58.80
2023-03-10T17:19:30.307Z,58.20
2023-03-10T17:21:58.562Z,58.70
2023-03-10T17:24:26.265Z,58.20
2023-03-10T17:26:54.842Z,56.20
2023-03-10T17:29:21.824Z,55.50
2023-03-10T17:31:50.796Z,57.00
2023-03-10T17:34:18.487Z,58.40
2023-03-10T17:36:45.999Z,59.30
2023-03-10T17:39:18.920Z,63.60
2023-03-10T17:41:46.159Z,66.00
2023-03-10T17:44:13.083Z,66.30
2023-03-10T17:46:41.156Z,65.10
2023-03-10T17:49:12.099Z,66.40
2023-03-10T17:51:43.587Z,68.30
2023-03-10T17:54:17.115Z,72.30
2023-03-10T17:56:44.184Z,76.80
2023-03-10T17:59:14.260Z,77.90
2023-03-10T18:01:43.718Z,79.60
2023-03-10T18:04:11.264Z,80.70
2023-03-10T18:06:38.512Z,80.20
2023-03-10T18:09:07.617Z,78.10
2023-03-10T18:11:35.019Z,78.60
2023-03-10T18:14:03.749Z,79.00
2023-03-10T18:16:34.338Z,78.50
2023-03-10T18:19:02.132Z,76.70
2023-03-10T18:21:29.049Z,80.70
2023-03-10T18:23:56.193Z,81.70
2023-03-10T18:26:30.576Z,81.80
2023-03-10T18:28:59.158Z,83.40
2023-03-10T18:31:28.442Z,80.10
2023-03-10T18:33:55.655Z,78.50
2023-03-10T18:36:24.761Z,78.10
2023-03-10T18:38:52.491Z,78.80
2023-03-10T18:41:21.382Z,77.80
2023-03-10T18:43:48.618Z,77.80
2023-03-10T18:46:15.521Z,80.00
2023-03-10T18:48:42.584Z,80.50
2023-03-10T18:51:10.905Z,78.60
2023-03-10T18:53:37.920Z,77.90
2023-03-10T18:56:05.306Z,74.50
2023-03-10T18:58:33.167Z,71.00
2023-03-10T19:01:00.200Z,70.70
2023-03-10T19:03:31.013Z,72.50
2023-03-10T19:05:57.781Z,74.50
2023-03-10T19:08:27.180Z,76.30
2023-03-10T19:10:59.009Z,75.70
2023-03-10T19:13:27.445Z,71.70
2023-03-10T19:15:54.585Z,73.40
2023-03-10T19:18:21.939Z,72.80
2023-03-10T19:20:48.961Z,68.50
2023-03-10T19:23:16.077Z,69.10
2023-03-10T19:25:43.287Z,69.90
2023-03-10T19:28:10.160Z,68.80
2023-03-10T19:30:40.213Z,71.10
2023-03-10T19:33:07.093Z,72.60
2023-03-10T19:35:34.002Z,72.40
2023-03-10T19:38:01.078Z,71.80
2023-03-10T19:40:28.194Z,73.80
2023-03-10T19:42:55.090Z,71.70
2023-03-10T19:45:21.962Z,75.40
2023-03-10T19:47:49.037Z,77.10
2023-03-10T19:50:17.423Z,77.80
2023-03-10T19:52:49.823Z,78.20
2023-03-10T19:55:19.889Z,80.30
2023-03-10T19:57:50.891Z,81.40
2023-03-10T20:00:24.884Z,82.50
2023-03-10T20:02:55.459Z,83.50
2023-03-10T20:05:25.451Z,89.00
2023-03-10T20:07:52.575Z,90.10
2023-03-10T20:10:19.662Z,90.40
2023-03-10T20:12:51.360Z,91.20
2023-03-10T20:15:18.811Z,92.00
2023-03-10T20:17:46.151Z,92.00
2023-03-10T20:20:15.261Z,92.40
2023-03-10T20:22:45.670Z,92.30
2023-03-10T20:25:19.325Z,93.40
2023-03-10T20:27:47.461Z,94.10
2023-03-10T20:30:21.781Z,94.90
2023-03-10T20:32:48.744Z,94.20
2023-03-10T20:35:16.654Z,94.50
2023-03-10T20:37:43.982Z,95.20
2023-03-10T20:40:13.728Z,95.00
2023-03-10T20:42:41.066Z,96.10
2023-03-10T20:45:09.743Z,96.50
2023-03-10T20:47:36.713Z,96.30
2023-03-10T20:50:06.147Z,95.60
2023-03-10T20:52:37.781Z,96.40
2023-03-10T20:55:07.070Z,97.50
2023-03-10T20:57:34.741Z,96.80
2023-03-10T21:00:02.702Z,98.20
2023-03-10T21:02:29.667Z,99.10
2023-03-10T21:04:56.550Z,98.40
2023-03-10T21:07:23.485Z,99.90
2023-03-10T21:09:50.452Z,99.90
2023-03-10T21:12:18.743Z,99.90
2023-03-10T21:14:46.096Z,99.90
2023-03-10T21:17:13.034Z,99.90
2023-03-10T21:19:39.903Z,99.90
2023-03-10T21:22:07.121Z,99.90
2023-03-10T21:24:34.288Z,99.90
2023-03-10T21:27:01.310Z,99.90
2023-03-10T21:29:28.240Z,99.90
2023-03-10T21:31:55.153Z,99.90
2023-03-10T21:34:22.195Z,99.90
2023-03-10T21:36:49.178Z,99.90
2023-03-10T21:39:16.152Z,99.90
2023-03-10T21:41:43.048Z,99.90
2023-03-10T21:44:11.326Z,99.90
2023-03-10T21:46:38.320Z,99.90
2023-03-10T21:49:05.417Z,99.90
2023-03-10T21:51:34.849Z,99.90
2023-03-10T21:54:03.186Z,99.90
2023-03-10T21:56:30.260Z,99.90
2023-03-10T21:58:57.840Z,99.90
2023-03-10T22:01:26.288Z,99.90
2023-03-10T22:03:53.640Z,99.90
2023-03-10T22:06:20.927Z,99.90
2023-03-10T22:08:48.106Z,99.90
2023-03-10T22:11:15.199Z,99.90
2023-03-10T22:13:42.658Z,99.90
2023-03-10T22:16:14.050Z,99.90
2023-03-10T22:18:41.114Z,99.90
2023-03-10T22:21:08.271Z,99.90
2023-03-10T22:23:36.510Z,99.90
2023-03-10T22:26:06.760Z,99.90
2023-03-10T22:28:36.443Z,99.90
2023-03-10T22:31:15.163Z,99.90
2023-03-10T22:33:50.052Z,99.90
2023-03-10T22:36:18.605Z,99.90
2023-03-10T22:38:45.753Z,99.90
2023-03-10T22:41:15.745Z,99.90
2023-03-10T22:43:45.883Z,99.90
2023-03-10T22:46:21.492Z,99.90
2023-03-10T22:49:14.588Z,99.90
2023-03-10T22:51:42.145Z,99.90
2023-03-10T22:54:15.310Z,99.90
2023-03-10T22:56:42.620Z,99.90
2023-03-10T22:59:09.656Z,99.90
2023-03-10T23:01:36.696Z,99.90
2023-03-10T23:04:03.722Z,99.90
2023-03-10T23:06:31.924Z,99.90
2023-03-10T23:08:58.969Z,99.90
2023-03-10T23:11:26.468Z,99.90
2023-03-10T23:13:53.485Z,99.90
2023-03-10T23:16:20.402Z,99.90
2023-03-10T23:18:47.594Z,99.90
2023-03-10T23:21:14.540Z,99.90
2023-03-10T23:23:43.830Z,99.90
2023-03-10T23:26:11.867Z,99.90
2023-03-10T23:28:39.203Z,99.90
2023-03-10T23:31:07.169Z,99.90
2023-03-10T23:33:34.513Z,99.90
2023-03-10T23:36:01.415Z,99.90
2023-03-10T23:38:28.432Z,99.90
2023-03-10T23:40:55.643Z,99.90
2023-03-10T23:43:23.009Z,99.90
2023-03-10T23:45:50.143Z,99.90
2023-03-10T23:48:18.376Z,99.90
2023-03-10T23:50:47.401Z,99.90
2023-03-10T23:53:16.361Z,99.90
2023-03-10T23:55:45.633Z,99.90
2023-03-10T23:58:14.326Z,99.90
